Time;durP1;ratioP1;P1;durP2;ratioP2;P2;SDS_P1;SDS_P2;PMS_P1;PMS_P2;Temp;Humidity;BMP_temperature;BMP_pressure;BME280_temperature;BME280_humidity;BME280_pressure;Samples;Min_cycle;Max_cycle;Signal;HPM_P1;HPM_P2
2022/01/24 00:00:09;;;;;;;23.85;12.38;;;2.30;78.50;;;;;;4989756;28;20546;-67
2022/01/24 00:02:36;;;;;;;21.85;12.18;;;2.30;77.60;;;;;;4990267;28;20034;-68
2022/01/24 00:05:02;;;;;;;20.27;11.85;;;2.30;77.80;;;;;;4994123;28;20084;-67
2022/01/24 00:07:27;;;;;;;19.80;11.68;;;2.30;77.90;;;;;;4996252;28;20050;-68
2022/01/24 00:09:56;;;;;;;22.83;11.80;;;2.30;78.00;;;;;;4988887;28;20034;-68
2022/01/24 00:12:33;;;;;;;22.67;12.52;;;2.30;78.00;;;;;;4992668;28;20107;-67
2022/01/24 00:18:04;;;;;;;20.08;11.38;;;2.30;78.00;;;;;;4982770;28;20026;-67
2022/01/24 00:28:25;;;;;;;20.30;10.95;;;2.30;78.00;;;;;;4994692;28;20279;-67
2022/01/24 00:30:52;;;;;;;19.73;11.63;;;2.30;78.00;;;;;;4990138;28;20789;-67
2022/01/24 00:33:19;;;;;;;22.55;12.73;;;2.20;78.10;;;;;;4993814;28;20057;-67
2022/01/24 00:35:46;;;;;;;21.17;11.88;;;2.30;78.10;;;;;;4990638;28;20037;-67
2022/01/24 00:38:11;;;;;;;21.13;12.20;;;2.30;78.20;;;;;;4996562;28;20138;-67
2022/01/24 00:40:40;;;;;;;21.35;12.18;;;2.30;78.30;;;;;;4995102;28;20585;-68
2022/01/24 00:43:21;;;;;;;20.98;11.70;;;2.30;78.30;;;;;;4996411;28;20043;-67
2022/01/24 00:45:57;;;;;;;22.77;12.73;;;2.30;78.30;;;;;;4992103;28;20130;-68
2022/01/24 00:48:32;;;;;;;22.95;12.20;;;2.20;78.20;;;;;;4997803;28;20045;-67
2022/01/24 00:56:14;;;;;;;23.80;12.50;;;2.20;78.30;;;;;;4994466;28;20042;-66
2022/01/24 00:58:40;;;;;;;22.90;11.80;;;2.30;78.30;;;;;;4996022;28;20096;-67
2022/01/24 01:01:06;;;;;;;23.20;12.85;;;2.30;78.30;;;;;;4991889;28;20061;-67
2022/01/24 01:03:32;;;;;;;23.05;12.70;;;2.20;78.30;;;;;;4990777;28;20512;-68
2022/01/24 01:19:27;;;;;;;24.00;12.95;;;2.20;78.10;;;;;;4994386;28;20044;-68
2022/01/24 01:21:53;;;;;;;21.42;11.95;;;2.20;78.00;;;;;;4992472;28;20038;-68
2022/01/24 01:24:19;;;;;;;22.90;12.60;;;2.20;78.00;;;;;;5009338;28;20100;-67
2022/01/24 01:26:53;;;;;;;22.35;12.52;;;2.20;78.00;;;;;;4992009;28;20042;-67
2022/01/24 01:29:30;;;;;;;;;;;2.20;77.90;;;;;;4999929;28;20092;-66
2022/01/24 01:32:08;;;;;;;21.67;11.73;;;2.20;78.30;;;;;;4995131;28;19945;-66
2022/01/24 01:34:59;;;;;;;23.70;12.70;;;2.20;77.60;;;;;;4996325;28;20078;-67
2022/01/24 01:37:51;;;;;;;21.35;12.20;;;2.20;77.60;;;;;;4994206;28;20030;-67
2022/01/24 01:56:41;;;;;;;18.60;10.38;;;2.00;78.30;;;;;;4994997;28;20093;-67
2022/01/24 01:59:07;;;;;;;24.15;12.43;;;2.00;78.30;;;;;;4992349;28;20130;-67
2022/01/24 02:01:32;;;;;;;23.05;13.15;;;2.00;78.30;;;;;;4993729;28;20524;-67
2022/01/24 02:04:02;;;;;;;22.40;12.77;;;2.00;78.30;;;;;;4991415;28;20480;-67
2022/01/24 02:06:29;;;;;;;22.38;12.95;;;2.00;78.40;;;;;;4996659;28;20031;-67
2022/01/24 02:09:08;;;;;;;22.23;12.77;;;2.00;78.50;;;;;;4988017;28;20074;-67
2022/01/24 02:11:34;;;;;;;21.45;12.30;;;1.90;78.80;;;;;;4994694;28;20042;-67
2022/01/24 02:14:05;;;;;;;20.52;12.00;;;1.90;78.50;;;;;;4990815;28;20097;-67
2022/01/24 02:16:44;;;;;;;23.33;12.68;;;1.90;78.50;;;;;;4992966;28;20515;-67
2022/01/24 02:22:28;;;;;;;21.80;12.87;;;1.90;78.50;;;;;;4992842;28;20045;-67
2022/01/24 02:25:07;;;;;;;23.00;13.25;;;1.90;78.60;;;;;;4992085;28;20497;-65
2022/01/24 02:27:44;;;;;;;20.50;12.88;;;1.80;78.60;;;;;;4992251;28;20065;-67
2022/01/24 02:30:42;;;;;;;24.85;12.52;;;1.80;78.60;;;;;;4994490;28;20053;-66
2022/01/24 02:32:58;;;;;;;22.17;12.32;;;1.80;78.60;;;;;;4992728;28;20058;-67
2022/01/24 02:35:23;;;;;;;21.98;12.35;;;1.80;78.70;;;;;;4987571;28;20112;-68
2022/01/24 02:37:49;;;;;;;22.50;12.32;;;1.80;78.80;;;;;;4994496;28;20035;-67
2022/01/24 02:40:18;;;;;;;23.52;13.50;;;1.80;78.80;;;;;;4987061;28;20089;-67
2022/01/24 02:48:30;;;;;;;23.42;12.55;;;1.80;78.90;;;;;;4992925;28;20174;-67
2022/01/24 02:53:43;;;;;;;22.88;13.02;;;1.80;79.00;;;;;;4989868;28;20038;-67
2022/01/24 02:56:09;;;;;;;22.33;13.05;;;1.80;79.00;;;;;;4990974;28;20042;-67
2022/01/24 02:58:35;;;;;;;21.67;12.98;;;1.80;79.10;;;;;;4988641;28;20084;-65
2022/01/24 03:01:06;;;;;;;25.50;13.65;;;1.80;79.20;;;;;;4994290;28;20469;-67
2022/01/24 03:03:33;;;;;;;22.73;13.05;;;1.70;79.00;;;;;;4994714;28;20042;-67
2022/01/24 03:05:59;;;;;;;25.58;14.27;;;1.70;79.00;;;;;;4990020;28;20440;-67
2022/01/24 03:08:24;;;;;;;23.95;13.30;;;1.70;79.00;;;;;;4990060;28;20042;-68
2022/01/24 03:10:52;;;;;;;23.40;12.82;;;1.70;79.00;;;;;;4990635;28;20037;-67
2022/01/24 03:15:51;;;;;;;24.40;12.85;;;1.70;79.90;;;;;;4989562;28;20074;-67
2022/01/24 03:18:18;;;;;;;23.95;12.25;;;1.70;79.20;;;;;;4993655;28;20450;-67
2022/01/24 03:20:44;;;;;;;21.83;12.68;;;1.70;79.20;;;;;;4987993;28;20042;-68
2022/01/24 03:23:11;;;;;;;23.33;12.80;;;1.70;79.10;;;;;;4989096;28;20046;-67
2022/01/24 03:25:37;;;;;;;22.83;12.40;;;1.70;79.20;;;;;;4989566;28;20037;-67
2022/01/24 03:28:04;;;;;;;20.73;12.43;;;1.70;79.20;;;;;;4990043;28;20088;-67
2022/01/24 03:30:30;;;;;;;23.25;12.77;;;1.70;79.20;;;;;;4988346;28;20127;-67
2022/01/24 03:32:56;;;;;;;21.42;12.77;;;1.60;79.20;;;;;;4988185;28;20045;-68
2022/01/24 03:35:21;;;;;;;20.90;12.65;;;1.60;79.30;;;;;;4991516;28;20681;-68
2022/01/24 03:37:47;;;;;;;18.98;11.88;;;1.60;79.40;;;;;;4994388;28;20038;-67
2022/01/24 03:40:13;;;;;;;20.92;12.32;;;1.60;79.40;;;;;;4990115;28;20405;-67
2022/01/24 03:42:39;;;;;;;23.58;13.02;;;1.60;79.50;;;;;;4990650;28;20054;-66
2022/01/24 03:45:08;;;;;;;22.08;12.93;;;1.60;79.50;;;;;;4995783;28;20121;-67
2022/01/24 03:50:01;;;;;;;22.38;12.77;;;1.60;79.50;;;;;;4999324;28;20062;-67
2022/01/24 03:52:30;;;;;;;20.40;12.02;;;1.60;79.60;;;;;;4995315;28;20040;-67
2022/01/24 03:54:56;;;;;;;21.70;12.80;;;1.60;79.70;;;;;;4997540;28;20038;-69
2022/01/24 03:57:23;;;;;;;21.10;12.23;;;1.60;79.70;;;;;;4996382;28;20112;-67
2022/01/24 03:59:49;;;;;;;20.02;12.00;;;1.60;79.70;;;;;;4996215;28;20155;-67
2022/01/24 04:02:16;;;;;;;21.65;12.68;;;1.60;79.70;;;;;;4996427;28;20648;-67
2022/01/24 04:04:42;;;;;;;21.17;12.52;;;1.60;79.70;;;;;;4998682;28;20034;-67
2022/01/24 04:07:08;;;;;;;21.17;11.98;;;1.60;79.70;;;;;;4995283;28;20108;-67
2022/01/24 04:09:35;;;;;;;20.05;11.80;;;1.60;79.70;;;;;;5013354;28;20034;-67
2022/01/24 04:12:02;;;;;;;21.83;12.32;;;1.60;79.70;;;;;;4991869;28;20042;-67
2022/01/24 04:17:07;;;;;;;18.77;11.80;;;1.60;79.70;;;;;;4997077;28;20037;-67
2022/01/24 04:22:18;;;;;;;20.77;12.57;;;1.60;79.70;;;;;;4992239;28;20038;-68
2022/01/24 04:24:46;;;;;;;20.08;12.02;;;1.60;79.70;;;;;;4998206;28;20038;-68
2022/01/24 04:27:13;;;;;;;18.67;11.60;;;1.60;79.50;;;;;;4990813;28;20033;-68
2022/01/24 04:29:40;;;;;;;18.38;11.95;;;1.60;79.50;;;;;;4991202;28;20038;-66
2022/01/24 04:32:06;;;;;;;21.02;12.95;;;1.60;79.40;;;;;;4994531;28;20575;-66
2022/01/24 04:34:32;;;;;;;18.20;11.55;;;1.60;79.40;;;;;;4996705;28;20040;-68
2022/01/24 04:36:58;;;;;;;17.42;10.95;;;1.50;79.40;;;;;;4990674;28;20034;-67
2022/01/24 04:39:24;;;;;;;19.25;11.35;;;1.50;79.30;;;;;;4997068;28;20037;-67
2022/01/24 04:41:53;;;;;;;19.40;12.55;;;1.50;79.40;;;;;;4993788;28;20022;-68
2022/01/24 04:47:33;;;;;;;16.90;10.63;;;1.50;79.40;;;;;;4993124;28;20049;-67
2022/01/24 04:53:04;;;;;;;23.73;12.90;;;1.60;79.30;;;;;;4992105;28;20044;-66
2022/01/24 04:55:21;;;;;;;20.40;11.57;;;1.50;79.20;;;;;;4995300;28;20034;-68
2022/01/24 04:57:47;;;;;;;19.20;12.77;;;1.60;79.20;;;;;;4990667;28;20035;-66
2022/01/24 05:00:13;;;;;;;20.58;12.95;;;1.50;79.20;;;;;;4995013;28;20052;-67
2022/01/24 05:02:38;;;;;;;23.00;14.32;;;1.50;79.20;;;;;;4993263;28;20046;-68
2022/01/24 05:05:07;;;;;;;20.95;13.18;;;1.60;79.20;;;;;;4989692;28;21025;-68
2022/01/24 05:07:32;;;;;;;22.40;12.57;;;1.50;79.20;;;;;;4989283;28;20173;-67
2022/01/24 05:25:55;;;;;;;20.73;13.50;;;1.40;79.60;;;;;;4998140;28;20408;-67
2022/01/24 05:28:21;;;;;;;21.60;13.40;;;1.40;79.70;;;;;;4996590;28;20038;-67
2022/01/24 05:30:48;;;;;;;21.23;12.90;;;1.30;79.70;;;;;;4990297;28;20045;-66
2022/01/24 05:33:14;;;;;;;21.15;13.02;;;1.40;79.90;;;;;;4988551;28;20509;-68
2022/01/24 05:35:39;;;;;;;19.77;13.30;;;1.30;80.80;;;;;;4996093;28;20656;-66
2022/01/24 05:38:05;;;;;;;18.33;12.38;;;1.30;80.00;;;;;;4990460;28;20049;-67
2022/01/24 05:40:31;;;;;;;21.20;13.27;;;1.30;79.90;;;;;;4991774;28;20113;-66
2022/01/24 05:42:57;;;;;;;23.75;14.57;;;1.30;79.90;;;;;;4989621;28;20049;-67
2022/01/24 05:45:23;;;;;;;25.35;14.73;;;1.30;79.90;;;;;;4995025;28;20049;-66
2022/01/24 05:47:49;;;;;;;22.42;12.82;;;1.30;80.00;;;;;;4997457;28;20249;-66
2022/01/24 05:50:15;;;;;;;21.63;13.13;;;1.30;80.00;;;;;;4995572;28;20493;-66
2022/01/24 05:52:40;;;;;;;16.75;11.35;;;1.30;80.90;;;;;;4995805;28;20502;-67
2022/01/24 05:55:07;;;;;;;23.38;13.48;;;1.30;80.00;;;;;;4994720;28;20056;-67
2022/01/24 05:57:33;;;;;;;22.00;13.18;;;1.40;80.00;;;;;;4995833;28;20034;-67
2022/01/24 05:59:59;;;;;;;20.52;12.75;;;1.40;80.00;;;;;;4997487;28;20038;-67
2022/01/24 06:02:24;;;;;;;20.23;13.30;;;1.40;79.90;;;;;;4997852;28;20154;-67
2022/01/24 06:04:50;;;;;;;23.52;13.80;;;1.40;79.90;;;;;;4997398;28;20065;-66
2022/01/24 06:07:16;;;;;;;22.15;14.55;;;1.40;79.90;;;;;;4998472;28;20038;-67
2022/01/24 06:09:41;;;;;;;20.42;13.45;;;1.40;79.90;;;;;;4995370;28;20045;-67
2022/01/24 06:12:08;;;;;;;19.70;13.18;;;1.40;80.00;;;;;;4996442;28;20301;-66
2022/01/24 06:14:33;;;;;;;24.13;14.10;;;1.40;79.90;;;;;;4999226;28;20080;-67
2022/01/24 06:16:59;;;;;;;23.77;14.50;;;1.40;79.90;;;;;;4999761;28;20030;-67
2022/01/24 06:19:24;;;;;;;21.92;13.13;;;1.40;79.90;;;;;;4997425;28;20544;-66
2022/01/24 06:21:50;;;;;;;20.40;12.88;;;1.40;79.90;;;;;;4998947;28;20027;-67
2022/01/24 06:24:16;;;;;;;21.33;13.60;;;1.40;79.90;;;;;;4997746;28;20726;-67
2022/01/24 06:26:43;;;;;;;23.42;13.50;;;1.40;79.90;;;;;;4997387;28;20038;-67
2022/01/24 06:29:11;;;;;;;21.15;13.18;;;1.40;79.90;;;;;;4997772;28;20120;-67
2022/01/24 06:31:38;;;;;;;21.02;13.25;;;1.40;79.90;;;;;;4997937;28;20116;-67
2022/01/24 06:34:04;;;;;;;20.17;13.02;;;1.40;80.20;;;;;;4999002;28;20424;-68
2022/01/24 06:36:30;;;;;;;18.88;12.68;;;1.40;80.00;;;;;;4998364;28;20046;-67
2022/01/24 06:38:55;;;;;;;23.15;13.63;;;1.40;79.90;;;;;;4996914;28;20397;-67
2022/01/24 06:41:27;;;;;;;22.80;13.68;;;1.40;79.90;;;;;;4999461;28;20060;-67
2022/01/24 06:43:53;;;;;;;18.67;12.60;;;1.40;79.90;;;;;;4997223;28;20041;-67
2022/01/24 06:46:18;;;;;;;21.65;13.18;;;1.40;80.00;;;;;;4997082;28;20045;-67
2022/01/24 06:48:44;;;;;;;25.08;12.85;;;1.40;80.00;;;;;;4996020;28;20121;-66
2022/01/24 06:51:10;;;;;;;19.67;12.25;;;1.40;80.00;;;;;;4993384;28;20041;-65
2022/01/24 06:53:41;;;;;;;18.30;12.23;;;1.40;79.90;;;;;;4995394;28;20499;-66
2022/01/24 06:56:06;;;;;;;20.25;13.48;;;1.40;80.00;;;;;;4991871;28;20030;-67
2022/01/24 06:58:33;;;;;;;21.42;13.20;;;1.40;79.90;;;;;;4997262;28;20404;-67
2022/01/24 07:00:59;;;;;;;24.17;14.30;;;1.40;79.90;;;;;;4998323;28;20046;-66
2022/01/24 07:03:25;;;;;;;20.98;13.48;;;1.40;79.90;;;;;;4997422;28;20049;-67
2022/01/24 07:05:51;;;;;;;21.60;13.73;;;1.50;79.90;;;;;;4996853;28;20531;-66
2022/01/24 07:08:16;;;;;;;22.85;13.75;;;1.40;80.10;;;;;;4999696;28;20620;-67
2022/01/24 07:10:42;;;;;;;22.60;14.27;;;1.40;79.60;;;;;;4996901;28;20492;-66
2022/01/24 07:13:08;;;;;;;21.00;13.90;;;1.50;79.50;;;;;;4998449;28;20365;-66
2022/01/24 07:15:38;;;;;;;22.98;14.25;;;1.40;79.50;;;;;;4998268;28;20038;-67
2022/01/24 07:20:35;;;;;;;21.27;13.82;;;1.50;79.40;;;;;;4999428;28;20034;-66
2022/01/24 07:23:01;;;;;;;21.52;13.48;;;1.50;79.50;;;;;;5002765;28;20038;-67
2022/01/24 07:25:27;;;;;;;22.27;14.25;;;1.50;79.50;;;;;;5000745;28;20030;-67
2022/01/24 07:27:52;;;;;;;28.75;18.05;;;1.40;79.50;;;;;;5002105;28;20034;-67
2022/01/24 07:30:18;;;;;;;23.35;14.75;;;1.40;79.60;;;;;;5001251;28;20033;-67
2022/01/24 07:32:43;;;;;;;24.15;14.50;;;1.50;79.70;;;;;;5002209;28;21173;-66
2022/01/24 07:35:09;;;;;;;22.95;13.98;;;1.50;79.70;;;;;;5002037;28;20116;-66
2022/01/24 07:37:35;;;;;;;22.73;14.75;;;1.50;79.70;;;;;;4998128;28;20026;-67
2022/01/24 07:40:02;;;;;;;25.17;14.85;;;1.40;79.70;;;;;;4997945;28;20594;-67
2022/01/24 07:42:52;;;;;;;23.45;14.10;;;1.40;80.60;;;;;;5012086;28;20826;-67
2022/01/24 07:45:17;;;;;;;21.98;14.65;;;1.40;79.70;;;;;;5000553;28;20408;-67
2022/01/24 07:47:44;;;;;;;23.63;15.30;;;1.50;79.90;;;;;;5000906;28;20026;-66
2022/01/24 07:50:11;;;;;;;20.48;13.57;;;1.50;80.00;;;;;;5000767;28;20038;-68
2022/01/24 07:52:37;;;;;;;26.15;15.25;;;1.40;79.90;;;;;;5000351;28;20045;-67
2022/01/24 07:55:03;;;;;;;22.90;15.25;;;1.40;80.00;;;;;;5001378;28;20034;-68
2022/01/24 07:57:29;;;;;;;22.90;14.68;;;1.50;80.10;;;;;;5002202;28;20041;-66
2022/01/24 07:59:54;;;;;;;24.77;15.27;;;1.50;80.00;;;;;;5000318;28;20037;-67
2022/01/24 08:02:20;;;;;;;21.63;13.82;;;1.50;79.90;;;;;;5002363;28;20034;-67
2022/01/24 08:04:45;;;;;;;23.02;14.75;;;1.50;80.00;;;;;;5001628;28;20396;-67
2022/01/24 08:07:11;;;;;;;23.35;14.52;;;1.50;79.90;;;;;;5000271;28;20034;-66
2022/01/24 08:09:37;;;;;;;24.23;14.95;;;1.50;80.00;;;;;;4998725;28;20575;-66
2022/01/24 08:12:03;;;;;;;22.15;13.90;;;1.50;80.70;;;;;;4988942;28;20069;-67
2022/01/24 08:14:28;;;;;;;22.13;14.48;;;1.50;79.90;;;;;;4996047;28;22084;-66
2022/01/24 08:16:54;;;;;;;25.38;15.85;;;1.50;79.90;;;;;;5003771;28;20103;-67
2022/01/24 08:19:20;;;;;;;25.23;15.27;;;1.60;80.00;;;;;;5002084;28;20034;-67
2022/01/24 08:21:45;;;;;;;24.50;15.63;;;1.60;80.00;;;;;;5001015;28;20804;-65
2022/01/24 08:24:12;;;;;;;24.52;14.48;;;1.60;80.00;;;;;;5001459;28;20022;-67
2022/01/24 08:26:37;;;;;;;25.92;16.02;;;1.60;80.00;;;;;;5000938;28;20150;-67
2022/01/24 08:29:04;;;;;;;25.02;15.65;;;1.70;80.20;;;;;;4999592;28;20035;-67
2022/01/24 08:31:30;;;;;;;22.75;14.15;;;1.70;80.20;;;;;;4997679;28;20484;-67
2022/01/24 08:33:56;;;;;;;23.08;14.52;;;1.70;80.20;;;;;;4999486;28;20038;-67
2022/01/24 08:36:22;;;;;;;26.17;15.52;;;1.70;80.40;;;;;;4999867;28;20496;-68
2022/01/24 08:38:50;;;;;;;25.25;15.43;;;1.70;80.60;;;;;;4998209;28;20045;-67
2022/01/24 08:41:25;;;;;;;23.92;14.85;;;1.80;80.80;;;;;;4997723;28;20667;-67
2022/01/24 08:43:58;;;;;;;22.98;14.40;;;1.80;81.00;;;;;;4998042;28;20039;-67
2022/01/24 08:46:23;;;;;;;24.45;15.50;;;1.80;81.20;;;;;;4996165;28;20125;-67
2022/01/24 08:48:49;;;;;;;25.48;15.57;;;1.90;81.30;;;;;;4997207;28;20602;-67
2022/01/24 08:51:16;;;;;;;24.05;14.68;;;1.90;81.40;;;;;;4998472;28;20508;-67
2022/01/24 08:53:42;;;;;;;24.88;14.90;;;1.90;82.30;;;;;;4997498;28;20540;-67
2022/01/24 08:56:10;;;;;;;23.38;13.75;;;2.00;81.60;;;;;;4997441;28;20583;-66
2022/01/24 08:58:36;;;;;;;23.33;13.98;;;2.00;81.60;;;;;;4997650;28;20136;-66
2022/01/24 09:01:03;;;;;;;23.65;14.63;;;2.10;81.80;;;;;;4996532;28;20504;-68
2022/01/24 09:03:32;;;;;;;21.00;13.57;;;2.10;81.80;;;;;;4992274;28;20504;-67
2022/01/24 09:05:59;;;;;;;24.13;14.88;;;2.20;81.90;;;;;;5000477;28;20157;-68
2022/01/24 09:08:25;;;;;;;25.38;15.60;;;2.20;81.90;;;;;;5014283;28;20412;-68
2022/01/24 09:10:52;;;;;;;27.23;15.32;;;2.20;82.00;;;;;;4996328;28;20063;-67
2022/01/24 09:13:21;;;;;;;27.42;17.00;;;2.30;83.00;;;;;;4999313;28;20041;-67
2022/01/24 09:15:47;;;;;;;23.25;14.60;;;2.30;82.40;;;;;;4997417;28;20036;-67
2022/01/24 09:18:13;;;;;;;24.70;15.93;;;2.30;82.50;;;;;;5000054;28;20043;-67
2022/01/24 09:20:39;;;;;;;25.75;15.65;;;2.40;82.40;;;;;;4997607;28;20507;-66
2022/01/24 09:23:06;;;;;;;24.70;15.13;;;2.40;82.50;;;;;;4998719;28;20037;-67
2022/01/24 09:25:32;;;;;;;23.90;15.10;;;2.50;82.50;;;;;;4998997;28;20034;-67
2022/01/24 09:27:58;;;;;;;25.48;16.08;;;2.50;82.50;;;;;;4997193;28;20044;-67
2022/01/24 09:30:24;;;;;;;26.48;14.90;;;2.50;82.60;;;;;;4997213;28;20080;-67
2022/01/24 09:32:51;;;;;;;23.98;14.80;;;2.60;82.50;;;;;;4996419;28;20639;-67
2022/01/24 09:35:17;;;;;;;24.00;15.18;;;2.60;82.50;;;;;;5000075;28;20038;-67
2022/01/24 09:37:46;;;;;;;24.63;15.13;;;2.60;82.50;;;;;;4998915;28;20620;-67
2022/01/24 09:40:15;;;;;;;23.40;15.05;;;2.70;82.50;;;;;;4999840;28;20049;-67
2022/01/24 09:42:42;;;;;;;24.17;15.05;;;2.70;82.60;;;;;;4999080;28;20630;-68
2022/01/24 09:45:09;;;;;;;21.15;13.55;;;2.80;82.60;;;;;;4997978;28;20041;-68
2022/01/24 09:47:35;;;;;;;24.58;14.93;;;2.80;82.60;;;;;;5000037;28;20501;-67
2022/01/24 09:50:01;;;;;;;24.38;14.82;;;2.90;82.70;;;;;;4999194;28;20453;-67
2022/01/24 09:52:28;;;;;;;24.92;14.85;;;2.90;82.70;;;;;;4998945;28;20030;-67
2022/01/24 09:54:54;;;;;;;24.70;14.88;;;3.00;82.60;;;;;;5000653;28;20121;-67
2022/01/24 09:57:20;;;;;;;24.05;14.40;;;3.10;82.50;;;;;;5010666;28;20141;-69
2022/01/24 09:59:46;;;;;;;22.83;15.02;;;3.20;82.30;;;;;;4998991;28;20137;-67
2022/01/24 10:02:11;;;;;;;22.35;14.65;;;3.20;82.10;;;;;;4997439;28;20035;-68
2022/01/24 10:04:37;;;;;;;23.02;14.73;;;3.30;82.00;;;;;;5013716;28;20033;-67
2022/01/24 10:07:14;;;;;;;21.17;14.07;;;3.40;82.00;;;;;;4999737;28;20456;-68
2022/01/24 10:09:48;;;;;;;25.38;14.75;;;3.40;82.00;;;;;;4998543;28;20169;-68
2022/01/24 10:17:55;;;;;;;26.15;15.32;;;3.60;82.00;;;;;;5000266;28;20118;-65
2022/01/24 10:20:28;;;;;;;23.65;14.32;;;3.70;82.00;;;;;;5003195;28;20118;-67
2022/01/24 10:23:20;;;;;;;23.75;14.50;;;3.70;82.00;;;;;;4997747;28;20061;-68
2022/01/24 10:25:47;;;;;;;24.00;14.00;;;3.80;82.00;;;;;;4997930;28;20663;-67
2022/01/24 10:28:22;;;;;;;22.73;13.93;;;3.90;81.90;;;;;;4998418;28;20041;-67
2022/01/24 10:31:20;;;;;;;23.73;14.35;;;3.90;81.80;;;;;;4996881;28;20574;-67
2022/01/24 10:34:10;;;;;;;;;;;;;;;;;;;;;
2022/01/24 10:36:47;;;;;;;23.13;14.05;;;4.10;81.50;;;;;;4997000;28;20152;-67
2022/01/24 10:39:19;;;;;;;24.17;14.27;;;4.20;81.30;;;;;;4996499;28;20041;-67
2022/01/24 10:42:10;;;;;;;22.90;14.13;;;4.20;80.90;;;;;;4996103;28;20036;-67
2022/01/24 10:44:37;;;;;;;24.90;13.93;;;4.20;80.90;;;;;;4997353;28;20559;-67
2022/01/24 10:47:20;;;;;;;22.20;13.50;;;4.20;80.80;;;;;;4996221;28;20045;-67
2022/01/24 10:49:47;;;;;;;21.65;13.73;;;4.30;80.70;;;;;;4996662;28;20511;-67
2022/01/24 10:52:27;;;;;;;22.42;13.63;;;4.30;80.50;;;;;;4999523;28;20382;-66
2022/01/24 10:55:10;;;;;;;21.10;13.45;;;4.40;80.60;;;;;;4995978;28;20027;-68
2022/01/24 10:57:36;;;;;;;22.55;13.38;;;4.40;80.60;;;;;;5001899;28;20030;-67
2022/01/24 11:00:09;;;;;;;22.02;13.50;;;4.40;80.40;;;;;;5001678;28;20035;-67
2022/01/24 11:02:36;;;;;;;20.92;13.05;;;4.50;80.30;;;;;;5003209;28;20022;-67
2022/01/24 11:05:19;;;;;;;23.63;13.57;;;4.50;80.20;;;;;;5003822;28;20105;-67
2022/01/24 11:07:57;;;;;;;21.50;13.18;;;4.50;80.00;;;;;;4997924;28;20045;-66
2022/01/24 11:10:26;;;;;;;19.67;12.43;;;4.60;79.90;;;;;;5003119;28;21954;-67
2022/01/24 11:12:52;;;;;;;23.65;14.77;;;4.60;79.90;;;;;;4993312;28;20026;-66
2022/01/24 11:15:19;;;;;;;20.42;13.15;;;4.70;79.90;;;;;;5000374;28;20076;-67
2022/01/24 11:17:46;;;;;;;20.88;13.30;;;4.60;79.70;;;;;;5001289;28;20459;-67
2022/01/24 11:20:16;;;;;;;22.65;13.93;;;4.70;79.70;;;;;;5000100;28;20026;-67
2022/01/24 11:22:45;;;;;;;21.50;13.63;;;4.70;79.60;;;;;;4999898;28;20038;-67
2022/01/24 11:25:13;;;;;;;21.65;13.65;;;4.70;79.60;;;;;;4996149;28;20036;-67
2022/01/24 11:27:41;;;;;;;21.42;13.38;;;4.80;79.50;;;;;;4996669;28;20400;-67
2022/01/24 11:30:18;;;;;;;19.77;12.20;;;4.80;79.30;;;;;;4998351;28;20035;-67
2022/01/24 11:32:48;;;;;;;19.45;13.00;;;4.80;79.30;;;;;;4997311;28;20523;-67
2022/01/24 11:35:32;;;;;;;18.77;12.70;;;4.80;79.00;;;;;;5011197;28;20038;-66
2022/01/24 11:37:59;;;;;;;21.40;13.00;;;4.80;78.80;;;;;;4999800;28;20234;-67
2022/01/24 11:40:26;;;;;;;22.30;13.13;;;4.90;79.00;;;;;;4999365;28;20096;-68
2022/01/24 11:42:52;;;;;;;21.45;13.50;;;4.90;78.80;;;;;;5000403;28;20036;-64
2022/01/24 11:45:42;;;;;;;20.38;12.90;;;5.00;78.80;;;;;;5003060;28;20060;-67
2022/01/24 11:48:15;;;;;;;22.80;13.45;;;4.90;78.60;;;;;;5004226;28;20027;-67
2022/01/24 11:50:41;;;;;;;21.63;13.40;;;5.00;78.80;;;;;;5001714;28;20157;-68
2022/01/24 11:53:25;;;;;;;20.92;13.60;;;4.90;78.70;;;;;;5000210;28;20121;-67
2022/01/24 11:55:54;;;;;;;21.02;12.82;;;5.00;78.60;;;;;;5002905;28;20504;-66
2022/01/24 11:58:29;;;;;;;18.77;12.27;;;5.00;78.60;;;;;;5004174;28;20081;-67
2022/01/24 12:00:57;;;;;;;;;;;5.10;78.50;;;;;;5001526;28;20110;-68
2022/01/24 12:03:27;;;;;;;19.30;12.07;;;5.10;78.40;;;;;;5004494;28;19928;-68
2022/01/24 12:05:58;;;;;;;20.45;12.95;;;5.10;78.30;;;;;;5000969;28;20062;-67
2022/01/24 12:08:38;;;;;;;20.65;13.02;;;5.10;78.20;;;;;;5000182;28;20030;-68
2022/01/24 12:11:13;;;;;;;20.40;12.82;;;5.10;78.00;;;;;;5009699;28;20041;-67
2022/01/24 12:13:43;;;;;;;20.33;13.50;;;5.10;78.60;;;;;;5001481;28;20030;-68
2022/01/24 12:16:11;;;;;;;21.50;13.45;;;5.10;77.80;;;;;;4998318;28;20061;-67
2022/01/24 12:18:37;;;;;;;20.58;12.52;;;5.10;77.50;;;;;;4999081;28;20103;-66
2022/01/24 12:21:05;;;;;;;20.13;13.15;;;5.20;77.50;;;;;;4999550;28;20516;-67
2022/01/24 12:23:36;;;;;;;21.77;13.50;;;5.20;77.60;;;;;;5000153;28;20274;-67
2022/01/24 12:26:21;;;;;;;20.52;13.65;;;5.20;77.50;;;;;;5000019;28;20034;-67
2022/01/24 12:28:48;;;;;;;22.90;14.18;;;5.20;77.50;;;;;;4998215;28;20030;-67
2022/01/24 12:31:16;;;;;;;20.65;13.50;;;5.20;77.60;;;;;;4998042;28;20117;-67
2022/01/24 12:33:58;;;;;;;21.70;12.93;;;5.20;77.50;;;;;;4999360;28;20596;-68
2022/01/24 12:36:48;;;;;;;22.35;13.20;;;5.20;77.40;;;;;;4998421;28;20034;-67
2022/01/24 12:39:34;;;;;;;22.10;13.23;;;5.30;77.40;;;;;;4998074;28;20064;-67
2022/01/24 12:42:06;;;;;;;22.45;13.45;;;5.20;77.40;;;;;;4999328;28;20117;-68
2022/01/24 12:47:19;;;;;;;20.42;12.90;;;5.30;77.40;;;;;;4997364;28;20038;-67
2022/01/24 12:49:47;;;;;;;19.55;13.60;;;5.30;77.30;;;;;;5000355;28;20117;-68
2022/01/24 12:52:15;;;;;;;20.45;13.13;;;5.30;77.30;;;;;;4999673;28;20594;-68
2022/01/24 12:54:43;;;;;;;21.00;13.13;;;5.30;77.40;;;;;;5013190;28;20043;-68
2022/01/24 12:57:14;;;;;;;19.67;12.90;;;5.20;77.10;;;;;;4998983;28;20037;-67
2022/01/24 12:59:57;;;;;;;21.80;13.75;;;5.30;77.20;;;;;;4998755;28;20036;-67
2022/01/24 13:02:32;;;;;;;23.48;15.68;;;5.30;77.20;;;;;;4998762;28;20469;-68
2022/01/24 13:05:06;;;;;;;22.10;14.40;;;5.30;77.20;;;;;;4995320;28;20293;-68
2022/01/24 13:07:33;;;;;;;25.85;15.73;;;5.40;77.30;;;;;;4998242;28;20049;-66
2022/01/24 13:10:11;;;;;;;22.17;14.70;;;5.40;77.10;;;;;;4999205;28;20459;-67
2022/01/24 13:12:38;;;;;;;23.05;14.65;;;5.40;77.00;;;;;;4994512;28;20038;-67
2022/01/24 13:15:08;;;;;;;24.65;14.65;;;5.40;76.90;;;;;;4999524;28;20038;-67
2022/01/24 13:25:30;;;;;;;20.90;13.98;;;5.40;76.90;;;;;;4994840;28;20042;-67
2022/01/24 13:28:06;;;;;;;20.23;13.15;;;5.40;76.90;;;;;;4999887;28;20084;-67
2022/01/24 13:30:41;;;;;;;21.13;14.18;;;5.40;76.70;;;;;;4997351;28;20542;-67
2022/01/24 13:33:15;;;;;;;;;;;5.40;76.50;;;;;;5000062;28;20069;-67
2022/01/24 13:35:44;;;;;;;18.25;11.57;;;5.40;76.40;;;;;;4997438;28;19917;-68
2022/01/24 13:38:16;;;;;;;21.42;13.93;;;5.40;76.60;;;;;;4998664;28;20026;-68
2022/01/24 13:41:02;;;;;;;20.63;13.40;;;5.40;76.60;;;;;;4999620;28;20108;-67
2022/01/24 13:43:44;;;;;;;21.85;13.52;;;5.30;76.40;;;;;;5013335;28;20442;-68
2022/01/24 13:46:18;;;;;;;21.80;13.35;;;5.30;76.60;;;;;;4997171;28;20479;-67
2022/01/24 13:48:47;;;;;;;18.77;12.35;;;5.40;76.70;;;;;;4994430;28;20173;-67
2022/01/24 13:51:25;;;;;;;20.02;13.23;;;5.40;76.80;;;;;;4998487;28;20250;-68
2022/01/24 13:53:57;;;;;;;20.88;12.65;;;5.40;76.90;;;;;;4998050;28;20501;-68
2022/01/24 13:56:27;;;;;;;18.83;12.57;;;5.40;76.80;;;;;;4998999;28;20045;-67
2022/01/24 13:59:02;;;;;;;19.58;13.35;;;5.40;76.70;;;;;;4995724;28;20083;-68
2022/01/24 14:01:28;;;;;;;19.10;12.50;;;5.50;76.60;;;;;;4997843;28;20057;-67
2022/01/24 14:04:04;;;;;;;21.00;13.15;;;5.50;76.80;;;;;;4997133;28;20667;-67
2022/01/24 14:06:35;;;;;;;21.83;12.77;;;5.50;76.60;;;;;;4997448;28;20093;-67
2022/01/24 14:09:12;;;;;;;19.73;12.25;;;5.50;76.60;;;;;;4997276;28;20034;-68
2022/01/24 14:11:47;;;;;;;20.27;12.90;;;5.60;76.50;;;;;;4996990;28;20049;-67
2022/01/24 14:14:17;;;;;;;20.17;12.77;;;5.60;76.60;;;;;;4998121;28;20034;-67
2022/01/24 14:19:13;;;;;;;22.33;13.18;;;5.60;76.40;;;;;;4997198;28;20068;-68
2022/01/24 14:21:38;;;;;;;19.55;13.40;;;5.70;76.30;;;;;;4996676;28;20026;-67
2022/01/24 14:24:07;;;;;;;20.08;13.57;;;5.60;76.20;;;;;;4998148;28;20038;-68
2022/01/24 14:26:33;;;;;;;19.10;12.45;;;5.70;76.20;;;;;;4997514;28;20176;-68
2022/01/24 14:29:12;;;;;;;20.23;12.50;;;5.60;76.20;;;;;;4996064;28;20125;-67
2022/01/24 14:31:40;;;;;;;18.92;12.20;;;5.70;76.00;;;;;;4996536;28;20037;-68
2022/01/24 14:34:07;;;;;;;18.83;12.13;;;5.70;76.10;;;;;;4999140;28;20092;-67
2022/01/24 14:36:34;;;;;;;17.67;11.23;;;5.70;76.00;;;;;;4998038;28;20039;-67
2022/01/24 14:39:06;;;;;;;18.35;11.30;;;5.80;76.20;;;;;;4996259;28;20042;-68